Time;durP1;ratioP1;P1;durP2;ratioP2;P2;SDS_P1;SDS_P2;PMS_P1;PMS_P2;Temp;Humidity;BMP_temperature;BMP_pressure;BME280_temperature;BME280_humidity;BME280_pressure;Samples;Min_cycle;Max_cycle;Signal;HPM_P1;HPM_P2
2023/07/28 00:00:21;;;;;;;1.50;0.90;;;18.40;98.20;;;;;;5050158;28;20523;-81
2023/07/28 00:02:48;;;;;;;1.53;1.00;;;18.40;98.20;;;;;;5039002;28;20517;-81
2023/07/28 00:05:15;;;;;;;1.57;0.90;;;18.40;98.20;;;;;;5050863;28;20462;-82
2023/07/28 00:07:42;;;;;;;1.50;0.90;;;18.40;98.20;;;;;;5042087;28;20759;-82
2023/07/28 00:10:09;;;;;;;1.50;1.00;;;18.40;98.20;;;;;;5051066;28;20470;-80
2023/07/28 00:12:37;;;;;;;1.50;0.90;;;18.40;98.20;;;;;;5038877;28;20475;-81
2023/07/28 00:15:05;;;;;;;1.50;0.90;;;18.40;98.20;;;;;;5052217;28;20463;-81
2023/07/28 00:17:32;;;;;;;1.50;0.90;;;18.40;98.20;;;;;;5043607;28;20485;-84
2023/07/28 00:19:59;;;;;;;1.50;1.00;;;18.40;98.20;;;;;;5049966;28;20459;-82
2023/07/28 00:22:25;;;;;;;1.50;1.00;;;18.50;98.20;;;;;;5037854;28;21140;-82
2023/07/28 00:24:52;;;;;;;1.50;1.00;;;18.50;98.20;;;;;;5045016;28;20451;-81
2023/07/28 00:27:19;;;;;;;1.60;0.90;;;18.50;98.20;;;;;;5030480;28;20479;-81
2023/07/28 00:29:47;;;;;;;1.53;1.00;;;18.50;98.20;;;;;;5045572;28;20490;-80
2023/07/28 00:32:14;;;;;;;1.50;1.00;;;18.50;98.20;;;;;;5036807;28;20470;-81
2023/07/28 00:34:40;;;;;;;1.50;0.90;;;18.50;98.20;;;;;;5042732;28;20471;-81
2023/07/28 00:37:07;;;;;;;1.50;0.90;;;18.50;98.20;;;;;;5035676;28;20881;-81
2023/07/28 00:39:34;;;;;;;1.50;0.90;;;18.50;98.20;;;;;;5041238;28;20466;-81
2023/07/28 00:42:01;;;;;;;1.50;0.90;;;18.50;98.20;;;;;;5033549;28;20566;-80
2023/07/28 00:44:27;;;;;;;1.50;0.90;;;18.50;98.20;;;;;;5042670;28;20459;-80
2023/07/28 00:46:56;;;;;;;1.50;0.90;;;18.50;98.20;;;;;;5038974;28;20485;-81
2023/07/28 00:49:22;;;;;;;1.50;0.90;;;18.50;98.20;;;;;;5040394;28;20461;-83
2023/07/28 00:51:50;;;;;;;1.60;1.00;;;18.50;98.20;;;;;;5030339;28;20490;-80
2023/07/28 00:54:18;;;;;;;1.50;1.00;;;18.50;98.20;;;;;;5039540;28;20481;-83
2023/07/28 00:56:45;;;;;;;1.50;1.00;;;18.50;98.20;;;;;;5034085;28;20483;-80
2023/07/28 00:59:12;;;;;;;1.50;1.00;;;18.50;98.20;;;;;;5038313;28;20546;-81
2023/07/28 01:01:39;;;;;;;1.50;0.90;;;18.50;98.20;;;;;;5035411;28;20545;-81
2023/07/28 01:04:07;;;;;;;1.50;0.90;;;18.50;98.20;;;;;;5036322;28;20895;-81
2023/07/28 01:06:44;;;;;;;1.50;0.90;;;18.50;98.20;;;;;;5033105;28;20492;-80
2023/07/28 01:09:14;;;;;;;1.50;0.90;;;18.50;98.20;;;;;;5042532;28;20463;-81
2023/07/28 01:11:54;;;;;;;1.50;0.90;;;18.50;98.20;;;;;;5037507;28;20553;-80
2023/07/28 01:14:21;;;;;;;1.50;0.90;;;18.60;98.20;;;;;;5044963;28;20462;-81
2023/07/28 01:16:47;;;;;;;1.50;0.90;;;18.60;98.20;;;;;;5036700;28;20487;-80
2023/07/28 01:19:18;;;;;;;1.50;0.90;;;18.60;98.20;;;;;;5041832;28;20458;-80
2023/07/28 01:21:49;;;;;;;1.50;0.90;;;18.60;98.20;;;;;;5040820;28;20537;-81
2023/07/28 01:24:21;;;;;;;1.50;1.00;;;18.60;98.20;;;;;;5040621;28;20930;-80
2023/07/28 01:26:51;;;;;;;1.50;0.90;;;18.60;98.20;;;;;;5025758;28;20846;-80
2023/07/28 01:29:19;;;;;;;1.50;0.90;;;18.60;98.20;;;;;;5046794;28;20458;-79
2023/07/28 01:31:47;;;;;;;1.50;0.90;;;18.60;98.20;;;;;;5033186;28;20900;-80
2023/07/28 01:34:14;;;;;;;1.50;0.90;;;18.60;98.20;;;;;;5043042;28;20455;-80
2023/07/28 01:36:40;;;;;;;1.50;0.90;;;18.50;98.20;;;;;;5035430;28;20668;-82
2023/07/28 01:39:07;;;;;;;1.50;0.97;;;18.50;98.20;;;;;;5042526;28;20497;-80
2023/07/28 01:41:34;;;;;;;1.50;0.90;;;18.50;98.20;;;;;;5038329;28;20589;-80
2023/07/28 01:44:02;;;;;;;1.50;0.90;;;18.50;98.20;;;;;;5048905;28;20532;-80
2023/07/28 01:46:29;;;;;;;1.53;0.90;;;18.50;98.20;;;;;;5040554;28;20482;-80
2023/07/28 01:48:56;;;;;;;1.50;0.90;;;18.60;98.20;;;;;;5039067;28;20741;-80
2023/07/28 01:51:25;;;;;;;1.50;0.90;;;18.60;98.20;;;;;;5030600;28;21016;-80
2023/07/28 01:53:52;;;;;;;1.50;0.90;;;18.50;98.20;;;;;;5038067;28;20466;-81
2023/07/28 01:56:18;;;;;;;1.50;0.97;;;18.50;98.20;;;;;;5032077;28;20463;-79
2023/07/28 01:58:45;;;;;;;1.50;0.93;;;18.50;98.20;;;;;;5037573;28;20519;-80
2023/07/28 02:01:15;;;;;;;1.50;0.93;;;18.50;98.20;;;;;;5035709;28;20494;-79
2023/07/28 02:03:41;;;;;;;1.53;0.90;;;18.50;98.20;;;;;;5044575;28;20482;-80
2023/07/28 02:06:08;;;;;;;1.50;0.90;;;18.50;98.20;;;;;;5033304;28;20485;-80
2023/07/28 02:08:35;;;;;;;1.50;0.90;;;18.50;98.20;;;;;;5044878;28;20462;-78
2023/07/28 02:11:02;;;;;;;1.50;0.90;;;18.50;98.20;;;;;;5038244;28;20480;-80
2023/07/28 02:13:29;;;;;;;1.50;0.90;;;18.50;98.20;;;;;;5033046;28;20460;-76
2023/07/28 02:15:55;;;;;;;1.50;0.90;;;18.50;98.20;;;;;;5039079;28;20466;-78
2023/07/28 02:18:23;;;;;;;1.53;0.90;;;18.50;98.20;;;;;;5046901;28;20486;-80
2023/07/28 02:20:50;;;;;;;1.53;0.90;;;18.40;98.20;;;;;;5044560;28;20458;-78
2023/07/28 02:23:17;;;;;;;1.50;1.00;;;18.40;98.20;;;;;;5046201;28;20490;-79
2023/07/28 02:25:44;;;;;;;1.50;0.90;;;18.40;98.20;;;;;;5057277;28;20463;-79
2023/07/28 02:28:11;;;;;;;1.50;0.90;;;18.50;98.20;;;;;;5037688;28;20495;-78
2023/07/28 02:30:38;;;;;;;1.50;0.90;;;18.40;98.20;;;;;;5056285;28;20469;-79
2023/07/28 02:33:05;;;;;;;1.50;0.90;;;18.50;98.20;;;;;;5038324;28;20470;-78
2023/07/28 02:35:33;;;;;;;1.53;1.00;;;18.40;98.20;;;;;;5055175;28;20459;-78
2023/07/28 02:38:00;;;;;;;1.50;0.90;;;18.50;98.20;;;;;;5036107;28;20490;-77
2023/07/28 02:40:27;;;;;;;1.50;0.90;;;18.40;98.20;;;;;;5056141;28;20469;-77
2023/07/28 02:42:53;;;;;;;1.50;0.90;;;18.50;98.20;;;;;;5039973;28;20478;-78
2023/07/28 02:45:20;;;;;;;1.50;1.00;;;18.50;98.20;;;;;;5052606;28;20463;-79
2023/07/28 02:47:47;;;;;;;1.50;0.90;;;18.50;98.20;;;;;;5035420;28;20486;-80
2023/07/28 02:50:14;;;;;;;1.50;0.90;;;18.50;98.20;;;;;;5050283;28;20478;-79
2023/07/28 02:52:42;;;;;;;1.57;0.90;;;18.40;98.20;;;;;;5046106;28;20490;-79
2023/07/28 02:55:09;;;;;;;1.50;0.93;;;18.50;98.20;;;;;;5052325;28;20538;-80
2023/07/28 02:57:36;;;;;;;1.50;0.90;;;18.40;98.20;;;;;;5046139;28;20474;-80
2023/07/28 03:00:05;;;;;;;1.50;0.90;;;18.40;98.20;;;;;;5046122;28;20472;-78
2023/07/28 03:02:32;;;;;;;1.50;1.00;;;18.40;98.20;;;;;;5023673;28;20555;-80
2023/07/28 03:04:59;;;;;;;1.53;0.90;;;18.40;98.20;;;;;;5047300;28;20458;-79
2023/07/28 03:07:26;;;;;;;1.50;1.00;;;18.40;98.20;;;;;;5038064;28;20479;-79
2023/07/28 03:09:54;;;;;;;1.50;1.00;;;18.40;98.20;;;;;;5058598;28;20462;-80
2023/07/28 03:12:21;;;;;;;1.50;1.00;;;18.40;98.20;;;;;;5028561;28;20542;-77
2023/07/28 03:14:47;;;;;;;1.50;0.93;;;18.40;98.20;;;;;;5052148;28;20456;-79
2023/07/28 03:17:14;;;;;;;1.57;1.00;;;18.50;98.20;;;;;;5022313;28;20480;-79
2023/07/28 03:19:41;;;;;;;1.50;0.90;;;18.40;98.20;;;;;;5051694;28;20500;-81
2023/07/28 03:22:07;;;;;;;1.57;0.90;;;18.50;98.20;;;;;;5042824;28;20567;-80
2023/07/28 03:24:34;;;;;;;1.50;0.90;;;18.50;98.20;;;;;;5052652;28;20485;-80
2023/07/28 03:27:02;;;;;;;1.50;0.90;;;18.50;98.20;;;;;;5044530;28;20551;-81
2023/07/28 03:29:29;;;;;;;1.50;0.90;;;18.50;98.20;;;;;;5057783;28;20435;-78
2023/07/28 03:31:56;;;;;;;1.50;0.90;;;18.50;98.20;;;;;;5034925;28;20994;-81
2023/07/28 03:34:22;;;;;;;1.57;1.00;;;18.50;98.20;;;;;;5054092;28;20678;-81
2023/07/28 03:36:49;;;;;;;1.50;0.90;;;18.50;98.20;;;;;;5032221;28;20479;-80
2023/07/28 03:39:16;;;;;;;1.50;0.90;;;18.50;98.20;;;;;;5046487;28;20459;-80
2023/07/28 03:41:43;;;;;;;1.50;0.90;;;18.50;98.20;;;;;;5046027;28;20508;-79
2023/07/28 03:44:11;;;;;;;1.50;0.90;;;18.50;98.20;;;;;;5051862;28;20486;-81
2023/07/28 03:46:38;;;;;;;1.50;1.00;;;18.50;98.20;;;;;;5046016;28;20474;-79
2023/07/28 03:49:04;;;;;;;1.50;0.90;;;18.50;98.20;;;;;;5058080;28;20463;-79
2023/07/28 03:51:31;;;;;;;1.50;0.90;;;18.50;98.20;;;;;;5046589;28;20494;-80
2023/07/28 03:53:58;;;;;;;1.50;0.90;;;18.50;98.20;;;;;;5056236;28;20468;-78
2023/07/28 03:56:24;;;;;;;1.50;0.90;;;18.50;98.20;;;;;;5042362;28;20508;-77
2023/07/28 03:58:51;;;;;;;1.50;0.90;;;18.50;98.20;;;;;;5043105;28;20460;-77
2023/07/28 04:01:21;;;;;;;1.50;0.90;;;18.50;98.20;;;;;;5038226;28;20587;-79
2023/07/28 04:03:48;;;;;;;1.50;0.90;;;18.50;98.20;;;;;;5043763;28;20553;-77
2023/07/28 04:06:14;;;;;;;1.50;0.90;;;18.50;98.20;;;;;;5039810;28;20470;-78
2023/07/28 04:08:41;;;;;;;1.50;0.90;;;18.50;98.20;;;;;;5054935;28;20455;-82
2023/07/28 04:11:08;;;;;;;1.50;0.90;;;18.50;98.20;;;;;;5047119;28;20491;-82
2023/07/28 04:13:35;;;;;;;1.50;0.90;;;18.50;98.20;;;;;;5075445;23;20494;-84
2023/07/28 04:16:03;;;;;;;1.50;0.90;;;18.50;98.20;;;;;;5057398;28;20557;-85
2023/07/28 04:18:31;;;;;;;1.50;1.00;;;18.60;98.20;;;;;;5076367;28;20500;-84
2023/07/28 04:20:58;;;;;;;1.50;0.90;;;18.60;98.20;;;;;;5066989;28;20465;-85
2023/07/28 04:23:25;;;;;;;1.50;0.90;;;18.50;98.20;;;;;;5057580;28;20493;-82
2023/07/28 04:25:52;;;;;;;1.50;0.90;;;18.60;98.20;;;;;;5024097;28;20478;-85
2023/07/28 04:28:19;;;;;;;1.53;0.90;;;18.50;98.20;;;;;;5063465;28;20462;-85
2023/07/28 04:30:49;;;;;;;1.50;1.00;;;18.50;98.20;;;;;;5041564;28;20496;-85
2023/07/28 04:33:18;;;;;;;1.50;0.90;;;18.50;98.20;;;;;;5044462;28;20881;-85
2023/07/28 04:35:47;;;;;;;1.50;0.90;;;18.50;98.20;;;;;;5049311;28;20463;-85
2023/07/28 04:38:14;;;;;;;1.50;0.90;;;18.50;98.20;;;;;;5046851;28;20528;-84
2023/07/28 04:40:40;;;;;;;1.57;0.90;;;18.60;98.20;;;;;;5051148;28;20462;-86
2023/07/28 04:43:07;;;;;;;1.50;0.90;;;18.60;98.20;;;;;;5064864;28;20496;-84
2023/07/28 04:45:34;;;;;;;1.50;1.00;;;18.60;98.20;;;;;;5056931;28;20466;-85
2023/07/28 04:48:01;;;;;;;1.53;0.90;;;18.60;98.20;;;;;;5055155;28;20550;-85
2023/07/28 04:50:28;;;;;;;1.50;0.90;;;18.60;98.20;;;;;;5043792;28;21270;-84
2023/07/28 04:52:57;;;;;;;1.50;0.90;;;18.70;98.20;;;;;;5059664;28;20478;-85
2023/07/28 04:55:24;;;;;;;1.53;0.90;;;18.70;98.20;;;;;;5054215;28;20451;-85
2023/07/28 04:57:51;;;;;;;1.50;0.90;;;18.70;98.20;;;;;;5057141;28;20473;-84
2023/07/28 05:00:18;;;;;;;1.53;0.90;;;18.70;98.20;;;;;;5049071;28;20458;-85
2023/07/28 05:02:44;;;;;;;1.50;0.90;;;18.70;98.20;;;;;;5043517;28;20521;-84
2023/07/28 05:05:11;;;;;;;1.50;0.90;;;18.70;98.20;;;;;;5043780;28;20493;-84
2023/07/28 05:07:38;;;;;;;1.50;0.90;;;18.70;98.20;;;;;;5055973;28;20545;-84
2023/07/28 05:10:07;;;;;;;1.50;1.00;;;18.80;98.20;;;;;;5057242;28;20458;-84
2023/07/28 05:12:34;;;;;;;1.50;0.90;;;18.80;98.20;;;;;;5046125;28;20462;-85
2023/07/28 05:15:01;;;;;;;1.50;0.90;;;18.80;98.20;;;;;;5045687;28;20770;-85
2023/07/28 05:17:28;;;;;;;1.53;1.00;;;18.80;98.20;;;;;;5047775;28;20560;-84
2023/07/28 05:19:55;;;;;;;1.50;0.90;;;18.80;98.20;;;;;;5041387;28;20466;-85
2023/07/28 05:22:42;;;;;;;1.50;0.90;;;18.80;98.20;;;;;;5050559;28;20473;-85
2023/07/28 05:25:10;;;;;;;1.50;0.90;;;18.80;98.20;;;;;;5044391;28;20573;-85
2023/07/28 05:27:37;;;;;;;1.50;0.90;;;18.80;98.20;;;;;;5047486;28;20920;-85
2023/07/28 05:30:05;;;;;;;1.60;1.00;;;18.90;98.20;;;;;;5043564;28;20466;-85
2023/07/28 05:32:33;;;;;;;1.50;0.90;;;18.90;98.20;;;;;;5043993;28;20548;-85
2023/07/28 05:35:00;;;;;;;1.53;0.97;;;19.00;98.20;;;;;;5043971;28;21176;-85
2023/07/28 05:37:34;;;;;;;1.53;0.90;;;19.00;98.20;;;;;;5042434;28;20539;-85
2023/07/28 05:40:08;;;;;;;1.50;0.90;;;19.10;98.20;;;;;;5044427;28;20737;-85
2023/07/28 05:42:38;;;;;;;1.57;0.93;;;19.10;98.20;;;;;;5052489;28;20493;-85
2023/07/28 05:45:09;;;;;;;1.53;0.90;;;19.10;98.20;;;;;;5043020;28;20486;-84
2023/07/28 05:47:35;;;;;;;1.50;1.00;;;19.10;98.20;;;;;;5043926;28;21150;-85
2023/07/28 05:50:02;;;;;;;1.50;0.90;;;19.10;98.20;;;;;;5048612;28;20466;-85
2023/07/28 05:52:35;;;;;;;1.53;0.90;;;19.10;98.20;;;;;;5042645;28;20486;-85
2023/07/28 05:55:01;;;;;;;1.50;0.90;;;19.10;98.20;;;;;;5048186;28;21055;-85
2023/07/28 05:57:31;;;;;;;1.50;0.90;;;19.20;98.20;;;;;;5042083;28;20492;-85
2023/07/28 06:00:02;;;;;;;1.50;0.90;;;19.20;98.20;;;;;;5052945;28;20816;-85
2023/07/28 06:02:32;;;;;;;1.50;0.90;;;19.20;98.20;;;;;;5040607;28;20485;-86
2023/07/28 06:04:58;;;;;;;1.50;0.90;;;19.20;98.20;;;;;;5031631;28;20490;-85
2023/07/28 06:07:29;;;;;;;1.57;0.90;;;19.30;98.20;;;;;;5035333;28;20482;-85
2023/07/28 06:09:56;;;;;;;1.50;0.90;;;19.30;98.20;;;;;;5040096;28;20520;-85
2023/07/28 06:12:23;;;;;;;1.60;0.90;;;19.30;98.20;;;;;;5031134;28;20536;-85
2023/07/28 06:14:50;;;;;;;1.50;0.90;;;19.30;98.20;;;;;;5041549;28;20971;-84
2023/07/28 06:17:18;;;;;;;1.50;0.90;;;19.30;98.20;;;;;;5043301;28;20480;-85
2023/07/28 06:19:45;;;;;;;1.50;0.90;;;19.30;98.20;;;;;;5050114;28;20467;-85
2023/07/28 06:25:17;;;;;;;1.53;0.90;;;19.30;98.20;;;;;;5031732;28;20482;-85
2023/07/28 06:27:44;;;;;;;1.50;0.90;;;19.30;98.20;;;;;;5054845;28;20576;-84
2023/07/28 06:30:12;;;;;;;1.50;0.90;;;19.30;98.20;;;;;;5036892;28;20462;-85
2023/07/28 06:32:40;;;;;;;1.53;0.90;;;19.30;98.20;;;;;;5021865;28;20547;-85
2023/07/28 06:35:09;;;;;;;1.50;1.00;;;19.30;98.20;;;;;;5034810;28;21695;-85
2023/07/28 06:37:46;;;;;;;1.53;1.00;;;19.40;98.20;;;;;;5043635;28;20473;-84
2023/07/28 06:40:14;;;;;;;1.50;0.90;;;19.40;98.20;;;;;;5036574;28;20466;-86
2023/07/28 06:42:41;;;;;;;1.50;0.90;;;19.40;98.20;;;;;;5028261;28;20479;-85
2023/07/28 06:45:17;;;;;;;1.50;0.90;;;19.50;98.20;;;;;;5039471;28;20490;-85
2023/07/28 06:47:49;;;;;;;1.50;0.90;;;19.50;98.20;;;;;;5049479;28;20560;-85
2023/07/28 06:50:16;;;;;;;1.50;0.90;;;19.50;98.20;;;;;;5040553;28;21015;-85
2023/07/28 06:52:43;;;;;;;1.50;0.90;;;19.50;98.20;;;;;;5050259;28;20547;-85
2023/07/28 06:55:10;;;;;;;1.50;0.90;;;19.50;98.20;;;;;;5043171;28;20846;-85
2023/07/28 06:57:37;;;;;;;1.53;0.90;;;19.60;98.20;;;;;;5048627;28;21176;-85
2023/07/28 07:00:05;;;;;;;1.50;0.90;;;19.60;98.20;;;;;;5045016;28;20462;-85
2023/07/28 07:02:32;;;;;;;1.57;0.90;;;19.60;98.20;;;;;;5042292;28;20874;-85
2023/07/28 07:05:02;;;;;;;1.50;0.90;;;19.60;98.20;;;;;;5041916;28;20577;-85
2023/07/28 07:07:29;;;;;;;1.53;0.90;;;19.60;98.20;;;;;;5042139;28;20481;-85
2023/07/28 07:09:59;;;;;;;1.50;0.90;;;19.60;98.20;;;;;;5037431;28;20972;-85
2023/07/28 07:12:26;;;;;;;1.50;0.90;;;19.60;98.20;;;;;;5027138;28;20850;-85
2023/07/28 07:18:29;;;;;;;1.50;0.90;;;19.70;98.20;;;;;;4972393;28;20478;-85
2023/07/28 07:20:57;;;;;;;1.50;0.90;;;19.70;98.20;;;;;;5028943;28;20472;-85
2023/07/28 07:23:46;;;;;;;1.50;0.90;;;19.80;98.20;;;;;;5041963;28;20502;-85
2023/07/28 07:26:23;;;;;;;1.50;0.90;;;19.80;98.20;;;;;;5029817;28;20477;-83
2023/07/28 07:28:49;;;;;;;1.53;0.90;;;19.80;98.20;;;;;;5050761;28;20469;-84
2023/07/28 07:31:19;;;;;;;1.50;0.90;;;19.90;98.20;;;;;;5028959;28;20516;-86
2023/07/28 07:33:48;;;;;;;1.53;0.90;;;19.90;98.20;;;;;;5040067;28;21271;-84
2023/07/28 07:36:17;;;;;;;1.53;0.90;;;19.90;98.20;;;;;;5035145;28;20473;-85
2023/07/28 07:38:45;;;;;;;1.50;0.90;;;20.00;98.20;;;;;;5054840;28;20957;-85
2023/07/28 07:41:13;;;;;;;1.50;0.90;;;20.00;98.20;;;;;;5030850;28;20879;-85
2023/07/28 07:43:40;;;;;;;1.53;0.90;;;20.00;98.20;;;;;;5038286;28;21082;-84
2023/07/28 07:46:07;;;;;;;1.50;0.90;;;20.10;98.20;;;;;;5028545;28;20710;-84
2023/07/28 07:48:34;;;;;;;1.50;0.90;;;20.10;98.20;;;;;;5036527;28;20938;-84
2023/07/28 07:51:15;;;;;;;1.53;0.90;;;20.10;98.20;;;;;;5028967;28;20888;-84
2023/07/28 07:53:53;;;;;;;1.50;0.90;;;20.10;98.20;;;;;;5046112;28;20478;-84
2023/07/28 07:56:27;;;;;;;1.50;0.90;;;20.10;98.20;;;;;;5041317;28;20480;-84
2023/07/28 07:59:06;;;;;;;;;;;;;;;;;;;;;
2023/07/28 08:02:02;;;;;;;1.50;0.90;;;20.20;98.20;;;;;;5032160;28;20474;-84
2023/07/28 08:04:29;;;;;;;1.53;0.90;;;20.20;98.20;;;;;;5035634;28;20518;-85
2023/07/28 08:06:56;;;;;;;1.50;0.90;;;20.20;98.20;;;;;;5025515;28;21029;-85
2023/07/28 08:09:24;;;;;;;1.53;0.90;;;20.30;98.20;;;;;;5040700;28;20462;-85
2023/07/28 08:11:55;;;;;;;1.50;0.90;;;20.30;98.20;;;;;;5028678;28;20483;-85
2023/07/28 08:14:21;;;;;;;1.60;1.00;;;20.30;98.20;;;;;;5040574;28;20482;-85
2023/07/28 08:16:54;;;;;;;1.50;0.90;;;20.30;98.20;;;;;;5041280;28;20502;-84
2023/07/28 08:20:11;;;;;;;1.50;0.90;;;20.30;98.20;;;;;;5051431;28;20459;-85
2023/07/28 08:22:37;;;;;;;1.60;1.10;;;20.40;98.20;;;;;;5055934;28;20579;-86
2023/07/28 08:25:07;;;;;;;1.57;0.90;;;20.40;98.20;;;;;;5052826;28;20486;-84
2023/07/28 08:27:35;;;;;;;1.50;0.90;;;20.40;98.20;;;;;;5055936;28;20474;-84
2023/07/28 08:30:05;;;;;;;1.57;0.90;;;20.40;98.20;;;;;;5047915;28;20494;-84
2023/07/28 08:32:32;;;;;;;1.53;0.90;;;20.50;98.20;;;;;;5048030;28;20597;-84
2023/07/28 08:38:35;;;;;;;1.50;0.90;;;20.70;98.20;;;;;;4993069;28;20541;-83
2023/07/28 08:41:29;;;;;;;1.53;0.90;;;20.80;98.20;;;;;;5037326;28;20964;-83
2023/07/28 08:43:57;;;;;;;1.50;0.90;;;20.80;98.20;;;;;;5039498;28;20470;-83
2023/07/28 08:52:47;;;;;;;1.53;0.90;;;21.20;98.20;;;;;;5040766;28;20520;-85
2023/07/28 08:58:40;;;;;;;1.57;0.90;;;21.50;98.20;;;;;;5030135;28;20639;-82
2023/07/28 09:06:52;;;;;;;1.50;0.90;;;22.00;98.20;;;;;;5028433;28;20462;-84
2023/07/28 09:10:09;;;;;;;1.57;0.90;;;22.10;98.20;;;;;;5069720;28;20469;-84
2023/07/28 09:24:04;;;;;;;1.53;0.90;;;23.00;98.20;;;;;;5046621;28;20473;-82
2023/07/28 09:27:07;;;;;;;1.50;0.80;;;23.10;98.20;;;;;;5038918;28;20474;-82
2023/07/28 09:32:54;;;;;;;1.50;0.90;;;23.20;98.20;;;;;;5014346;28;20529;-85
2023/07/28 09:38:03;;;;;;;1.50;0.93;;;23.10;98.20;;;;;;4971041;28;20477;-85
2023/07/28 09:40:41;;;;;;;1.50;0.90;;;23.00;98.20;;;;;;5044981;28;20497;-85
2023/07/28 09:43:10;;;;;;;1.50;0.90;;;23.00;98.20;;;;;;5033696;28;20516;-84
2023/07/28 09:45:43;;;;;;;1.53;0.87;;;23.20;98.20;;;;;;5044463;28;20929;-84
2023/07/28 09:48:13;;;;;;;1.53;0.87;;;23.30;98.20;;;;;;5036487;28;20513;-85
2023/07/28 09:50:44;;;;;;;1.53;0.90;;;23.50;98.20;;;;;;5049648;28;20920;-85
2023/07/28 09:53:15;;;;;;;2.03;1.57;;;23.70;98.20;;;;;;5037080;28;20482;-84
2023/07/28 09:55:54;;;;;;;1.57;0.90;;;23.80;98.20;;;;;;5049084;28;21057;-84
2023/07/28 10:01:48;;;;;;;1.50;0.90;;;24.00;98.20;;;;;;5036823;28;20563;-83
2023/07/28 10:04:15;;;;;;;1.53;0.90;;;24.00;98.20;;;;;;5041424;28;20913;-83
2023/07/28 10:06:47;;;;;;;1.50;0.80;;;24.00;98.20;;;;;;5031645;28;20625;-83
2023/07/28 10:09:16;;;;;;;1.50;0.90;;;24.00;98.20;;;;;;5044070;28;20527;-83
2023/07/28 10:14:47;;;;;;;1.50;0.90;;;24.00;98.20;;;;;;5045705;28;20470;-84
2023/07/28 10:17:31;;;;;;;1.50;0.90;;;23.90;98.20;;;;;;5038232;28;20486;-83
2023/07/28 10:19:59;;;;;;;1.53;0.90;;;24.00;98.20;;;;;;5046962;28;20537;-83
2023/07/28 10:27:56;;;;;;;1.50;0.90;;;24.00;98.20;;;;;;4146218;26;20835;-83
2023/07/28 10:30:55;;;;;;;1.50;0.90;;;23.90;98.20;;;;;;5049092;28;20470;-84
2023/07/28 10:33:38;;;;;;;1.50;0.90;;;23.90;98.20;;;;;;5006727;28;20493;-84
2023/07/28 10:39:27;;;;;;;1.50;0.90;;;23.70;98.20;;;;;;5036173;28;20507;-83
2023/07/28 10:42:15;;;;;;;1.50;0.90;;;23.70;98.20;;;;;;5024073;28;20783;-83
2023/07/28 10:44:42;;;;;;;1.50;0.90;;;23.60;98.20;;;;;;5032576;28;20554;-83
2023/07/28 10:47:23;;;;;;;1.50;0.90;;;23.60;98.20;;;;;;5016133;28;20556;-83
2023/07/28 10:52:42;;;;;;;1.50;0.90;;;23.90;98.20;;;;;;5020412;28;20482;-83
2023/07/28 10:55:38;;;;;;;1.57;0.90;;;24.20;98.20;;;;;;5034661;28;20840;-83
2023/07/28 10:58:41;;;;;;;1.50;0.90;;;24.60;98.20;;;;;;5027762;28;20479;-83
2023/07/28 11:01:29;;;;;;;1.50;0.90;;;24.90;98.20;;;;;;5017715;28;20581;-82
2023/07/28 11:04:27;;;;;;;1.50;0.80;;;25.00;98.20;;;;;;5034752;28;20474;-82
2023/07/28 11:10:20;;;;;;;1.53;0.80;;;25.20;98.20;;;;;;4986468;28;20465;-81
2023/07/28 11:12:50;;;;;;;1.53;0.90;;;25.10;98.20;;;;;;5023325;28;21005;-81
2023/07/28 11:18:18;;;;;;;1.57;0.90;;;24.60;98.20;;;;;;5031766;28;20901;-83
2023/07/28 11:20:46;;;;;;;1.53;0.90;;;24.40;98.20;;;;;;5043619;28;20462;-83
2023/07/28 11:23:17;;;;;;;1.50;0.90;;;24.20;98.20;;;;;;5025476;28;20597;-83
2023/07/28 11:25:48;;;;;;;1.57;0.90;;;24.10;98.20;;;;;;5052097;28;20496;-83
2023/07/28 11:28:41;;;;;;;1.50;0.90;;;24.00;98.20;;;;;;5014805;28;20471;-83
2023/07/28 11:31:10;;;;;;;1.50;0.90;;;23.90;98.20;;;;;;5036888;28;20455;-83
2023/07/28 11:33:54;;;;;;;1.50;0.90;;;23.90;98.20;;;;;;5031954;28;20801;-84
2023/07/28 11:36:33;;;;;;;1.53;0.90;;;23.90;98.20;;;;;;5032582;28;20566;-84
2023/07/28 11:39:21;;;;;;;1.50;0.90;;;23.90;98.20;;;;;;5046065;28;20462;-83
2023/07/28 11:42:01;;;;;;;1.50;0.90;;;24.00;98.20;;;;;;5036761;28;20928;-84
2023/07/28 11:47:18;;;;;;;1.53;0.90;;;24.50;98.20;;;;;;5034091;28;21028;-84
2023/07/28 11:53:37;;;;;;;1.53;0.90;;;25.20;98.20;;;;;;5011521;28;20574;-83
2023/07/28 11:56:05;;;;;;;1.60;1.10;;;25.60;98.20;;;;;;5040517;28;20486;-82
2023/07/28 11:58:35;;;;;;;1.53;0.90;;;25.90;98.20;;;;;;5048833;28;20479;-82
2023/07/28 12:03:56;;;;;;;1.57;0.90;;;26.30;98.20;;;;;;5037349;22;20506;-84
2023/07/28 12:06:52;;;;;;;1.50;0.83;;;26.20;98.20;;;;;;5061973;28;21020;-84
2023/07/28 12:09:21;;;;;;;1.50;0.90;;;26.30;98.20;;;;;;5069643;28;20470;-83
2023/07/28 12:11:49;;;;;;;1.57;0.90;;;26.40;98.20;;;;;;5058351;28;20544;-84
2023/07/28 12:14:18;;;;;;;1.53;0.90;;;26.30;98.20;;;;;;5058941;28;20458;-83
2023/07/28 12:16:49;;;;;;;1.50;0.80;;;26.30;98.20;;;;;;5050370;28;20567;-83
2023/07/28 12:19:16;;;;;;;1.50;0.80;;;26.10;98.20;;;;;;5067308;28;20503;-83
2023/07/28 12:21:47;;;;;;;1.50;0.87;;;25.90;98.20;;;;;;5056415;28;20572;-84
2023/07/28 12:24:17;;;;;;;1.50;0.90;;;25.70;98.20;;;;;;5062416;28;20458;-85
2023/07/28 12:26:49;;;;;;;1.50;0.90;;;25.50;98.20;;;;;;5055428;28;20938;-85
2023/07/28 12:32:43;;;;;;;1.50;0.87;;;25.30;98.20;;;;;;5041261;28;20462;-84
2023/07/28 12:42:14;;;;;;;1.53;0.90;;;25.20;98.20;;;;;;5068146;28;20526;-85
2023/07/28 12:47:57;;;;;;;1.50;0.90;;;25.20;98.20;;;;;;4987073;28;20979;-84
2023/07/28 12:50:25;;;;;;;1.50;0.80;;;25.20;98.20;;;;;;5002564;28;20652;-83
2023/07/28 12:55:27;;;;;;;1.50;0.80;;;25.40;98.20;;;;;;5061523;28;20546;-83
2023/07/28 12:58:11;;;;;;;1.50;0.80;;;25.40;98.20;;;;;;5061345;28;20667;-84
2023/07/28 13:00:48;;;;;;;1.50;0.80;;;25.40;98.20;;;;;;5071268;28;20481;-84
2023/07/28 13:03:17;;;;;;;1.50;0.90;;;25.30;98.20;;;;;;5043356;28;20474;-83
2023/07/28 13:08:36;;;;;;;1.57;0.80;;;25.00;98.20;;;;;;5030733;28;20767;-82
2023/07/28 13:14:09;;;;;;;1.50;0.80;;;24.70;98.20;;;;;;5038001;28;20482;-83
2023/07/28 13:16:37;;;;;;;1.50;0.90;;;24.70;98.20;;;;;;5031761;28;20483;-83
2023/07/28 13:19:27;;;;;;;1.50;0.90;;;24.70;98.20;;;;;;5041468;28;20564;-82
2023/07/28 13:22:32;;;;;;;1.50;0.90;;;24.70;98.20;;;;;;5042785;28;20577;-82
2023/07/28 13:25:07;;;;;;;1.53;0.83;;;24.60;98.20;;;;;;5044938;28;20553;-82
2023/07/28 13:31:07;;;;;;;1.50;0.90;;;24.30;98.20;;;;;;5038792;28;20465;-83
2023/07/28 13:33:42;;;;;;;1.53;0.90;;;24.10;98.20;;;;;;5051216;28;20486;-82
2023/07/28 13:39:38;;;;;;;1.50;0.90;;;23.90;98.20;;;;;;5016458;28;20492;-83
2023/07/28 13:42:15;;;;;;;1.50;0.90;;;24.00;98.20;;;;;;5041493;28;20686;-82
2023/07/28 13:44:42;;;;;;;1.50;0.90;;;24.00;98.20;;;;;;5052952;28;20848;-84
2023/07/28 13:47:11;;;;;;;1.50;0.80;;;24.10;98.20;;;;;;5029091;28;20475;-84
2023/07/28 13:49:38;;;;;;;1.50;0.90;;;24.10;98.20;;;;;;5045341;28;20489;-83
2023/07/28 13:52:06;;;;;;;1.50;0.80;;;24.10;98.20;;;;;;5042475;28;20584;-83
2023/07/28 13:54:36;;;;;;;1.50;0.90;;;24.10;98.20;;;;;;5050138;28;20478;-83
2023/07/28 14:03:10;;;;;;;1.50;0.90;;;24.00;98.20;;;;;;5013772;22;20486;-84
2023/07/28 14:05:38;;;;;;;1.50;0.83;;;23.80;98.20;;;;;;5044691;28;20463;-83
2023/07/28 14:08:09;;;;;;;1.53;0.90;;;23.70;98.20;;;;;;5019869;28;20487;-83
2023/07/28 14:10:38;;;;;;;1.50;0.90;;;23.60;98.20;;;;;;5043549;28;20507;-83
2023/07/28 14:13:05;;;;;;;1.53;0.90;;;23.40;98.20;;;;;;5029956;28;21058;-83
2023/07/28 14:15:37;;;;;;;1.50;0.90;;;23.30;98.20;;;;;;5050183;28;20645;-82
2023/07/28 14:18:04;;;;;;;1.50;0.90;;;23.20;98.20;;;;;;5038401;28;20895;-82
2023/07/28 14:20:32;;;;;;;1.53;0.90;;;23.10;98.20;;;;;;5049633;28;20474;-83
2023/07/28 14:23:27;;;;;;;1.57;1.10;;;23.10;98.20;;;;;;5008918;28;20900;-82
2023/07/28 14:29:27;;;;;;;1.50;0.90;;;23.00;98.20;;;;;;5000089;28;20462;-84
2023/07/28 14:31:54;;;;;;;1.50;0.90;;;22.80;98.20;;;;;;5018539;28;20483;-83
2023/07/28 14:34:24;;;;;;;1.53;0.90;;;22.70;98.20;;;;;;5039121;28;20473;-83
2023/07/28 14:36:55;;;;;;;1.50;0.90;;;22.70;98.20;;;;;;5025896;28;21041;-84
2023/07/28 14:42:11;;;;;;;1.50;0.87;;;22.50;98.20;;;;;;5011047;28;21080;-86
2023/07/28 14:44:41;;;;;;;1.50;0.90;;;22.40;98.20;;;;;;5035222;28;20482;-86
2023/07/28 14:47:08;;;;;;;1.50;0.90;;;22.40;98.20;;;;;;5014782;28;20551;-84
2023/07/28 14:49:37;;;;;;;1.50;0.90;;;22.30;98.20;;;;;;5036248;28;20470;-84
2023/07/28 14:52:18;;;;;;;1.50;0.90;;;22.40;98.20;;;;;;5017679;28;20479;-83
2023/07/28 14:54:48;;;;;;;1.50;0.90;;;22.40;98.20;;;;;;5037587;28;20463;-82
2023/07/28 14:57:27;;;;;;;1.50;0.90;;;22.40;98.20;;;;;;5017416;28;20541;-85
2023/07/28 15:01:06;;;;;;;;;;;;;;;;;;;;;
2023/07/28 15:04:05;;;;;;;;;;;;;;;;;;;;;
2023/07/28 15:06:43;;;;;;;1.50;0.90;;;22.60;98.20;;;;;;5034566;28;20494;-83